Terminal Aerodrome Forecast
Issued by NWS Twin Cities, MN

Home | Current Version | Previous Version | Text Only | Print | Product List | Glossary Off
Versions: 1 2 3 4 5 6 7 8 9 10 11 12 13 14 15 16 17 18 19 20 21 22 23 24 25 26

000
FTUS43 KMPX 220257 AAA
TAFMSP
TAF AMD
KMSP 220257Z 2203/2306 28009KT P6SM VCSH SCT030 BKN070
     FM220700 27009KT P6SM BKN140
     FM221700 29010KT P6SM BKN060=

USA.gov is the U.S. government's official web portal to all federal, state and local government web resources and services.